Time;durP1;ratioP1;P1;durP2;ratioP2;P2;SDS_P1;SDS_P2;PMS_P1;PMS_P2;Temp;Humidity;BMP_temperature;BMP_pressure;BME280_temperature;BME280_humidity;BME280_pressure;Samples;Min_cycle;Max_cycle;Signal;HPM_P1;HPM_P2
2021/10/30 00:00:35;;;;;;;3.78;2.15;;;;;;;25.10;16.22;98368.47;5044748;28;20087;-79
2021/10/30 00:03:01;;;;;;;5.53;2.45;;;;;;;25.17;16.15;98376.75;5070234;28;20025;-78
2021/10/30 00:05:27;;;;;;;4.90;2.65;;;;;;;25.43;15.98;98366.53;5061220;28;20050;-78
2021/10/30 00:07:53;;;;;;;5.43;2.55;;;;;;;25.39;16.02;98366.59;5068633;28;20207;-78
2021/10/30 00:10:19;;;;;;;3.78;2.00;;;;;;;24.86;16.55;98372.59;5068643;28;20062;-78
2021/10/30 00:12:46;;;;;;;3.17;1.88;;;;;;;24.81;16.23;98369.50;5078704;28;20403;-78
2021/10/30 00:15:12;;;;;;;4.78;2.05;;;;;;;24.69;16.45;98362.50;5066368;28;20462;-79
2021/10/30 00:17:39;;;;;;;3.58;2.00;;;;;;;24.85;16.23;98371.03;5068663;28;20032;-79
2021/10/30 00:20:06;;;;;;;2.88;1.70;;;;;;;25.03;15.73;98374.25;5067852;28;20102;-78
2021/10/30 00:22:32;;;;;;;3.08;1.73;;;;;;;25.30;15.44;98376.84;5061888;28;20474;-79
2021/10/30 00:24:58;;;;;;;9.43;2.20;;;;;;;25.57;15.35;98362.63;5075505;28;20107;-78
2021/10/30 00:27:25;;;;;;;4.15;1.63;;;;;;;25.75;15.38;98365.81;5065500;28;20060;-79
2021/10/30 00:29:51;;;;;;;2.55;1.42;;;;;;;25.67;15.58;98368.00;5066102;28;20062;-78
2021/10/30 00:32:17;;;;;;;4.45;1.83;;;;;;;25.28;16.27;98368.06;5066647;28;20044;-78
2021/10/30 00:34:43;;;;;;;3.75;2.00;;;;;;;24.71;16.88;98368.47;5062838;28;20407;-78
2021/10/30 00:37:09;;;;;;;3.08;1.65;;;;;;;24.64;16.62;98365.81;5067219;28;20040;-78
2021/10/30 00:39:35;;;;;;;2.63;1.70;;;;;;;24.10;16.45;98364.41;5068559;28;20032;-78
2021/10/30 00:42:01;;;;;;;2.47;1.30;;;;;;;24.77;16.13;98360.34;5057636;28;20375;-78
2021/10/30 00:44:28;;;;;;;1.60;1.05;;;;;;;25.14;15.42;98366.38;5059324;28;20060;-78
2021/10/30 00:46:54;;;;;;;2.15;1.20;;;;;;;25.46;15.06;98357.28;5057968;28;20029;-79
2021/10/30 00:49:24;;;;;;;1.38;1.10;;;;;;;25.73;14.65;98365.47;5069573;28;20036;-79
2021/10/30 00:51:55;;;;;;;2.08;1.17;;;;;;;25.87;14.53;98360.28;5064889;28;20024;-79
2021/10/30 00:54:22;;;;;;;;;;;;;;;26.10;14.14;98356.50;5074449;28;20033;-78
2021/10/30 00:56:50;;;;;;;2.25;1.40;;;;;;;26.14;14.69;98362.06;5068586;28;19928;-78
2021/10/30 00:59:18;;;;;;;2.90;1.70;;;;;;;25.83;15.40;98353.97;5061778;28;20037;-78
2021/10/30 01:01:48;;;;;;;1.70;1.00;;;;;;;26.04;15.18;98350.59;5063159;28;20085;-79
2021/10/30 01:04:15;;;;;;;1.55;1.20;;;;;;;26.20;14.60;98335.75;5061985;28;20029;-79
2021/10/30 01:06:44;;;;;;;2.28;1.30;;;;;;;26.27;14.38;98335.56;5064904;28;20083;-78
2021/10/30 01:09:10;;;;;;;2.42;1.00;;;;;;;25.98;14.89;98331.88;5064240;28;20029;-79
2021/10/30 01:11:37;;;;;;;2.45;1.27;;;;;;;25.36;15.17;98330.16;5066047;28;20032;-78
2021/10/30 01:14:03;;;;;;;1.98;1.05;;;;;;;25.78;15.18;98334.78;5074128;28;20021;-78
2021/10/30 01:16:30;;;;;;;2.33;1.30;;;;;;;25.87;14.87;98329.34;5068814;28;20117;-78
2021/10/30 01:18:56;;;;;;;2.35;1.48;;;;;;;26.09;14.87;98323.97;5066817;28;20041;-78
2021/10/30 01:21:33;;;;;;;1.70;1.13;;;;;;;25.97;15.40;98331.09;5070387;28;20052;-78
2021/10/30 01:24:03;;;;;;;1.90;1.10;;;;;;;26.35;14.52;98330.53;5066734;28;20022;-78
2021/10/30 01:26:29;;;;;;;2.15;1.40;;;;;;;26.62;14.19;98328.16;5067878;28;20033;-78
2021/10/30 01:28:55;;;;;;;1.75;1.30;;;;;;;26.89;14.07;98325.00;5066493;28;20033;-78
2021/10/30 01:31:21;;;;;;;3.10;1.83;;;;;;;26.76;13.84;98322.16;5064431;28;20040;-78
2021/10/30 01:33:49;;;;;;;1.95;1.10;;;;;;;26.96;13.70;98316.31;5081472;28;20035;-79
2021/10/30 01:36:17;;;;;;;1.70;0.88;;;;;;;26.60;14.59;98322.19;5058455;28;20067;-78
2021/10/30 01:38:43;;;;;;;1.15;1.02;;;;;;;26.30;15.53;98322.63;5073734;28;20040;-78
2021/10/30 01:41:10;;;;;;;1.90;1.02;;;;;;;25.92;15.49;98317.56;5064673;28;20505;-79
2021/10/30 01:43:36;;;;;;;2.30;1.30;;;;;;;25.78;14.91;98323.53;5065290;28;20025;-78
2021/10/30 01:46:03;;;;;;;1.55;1.00;;;;;;;25.73;15.31;98312.81;5069377;28;20111;-78
2021/10/30 01:48:30;;;;;;;2.17;1.10;;;;;;;25.88;14.75;98321.69;5070895;28;20037;-78
2021/10/30 01:50:57;;;;;;;2.08;1.27;;;;;;;26.00;15.29;98320.97;5069876;28;20037;-78
2021/10/30 01:53:23;;;;;;;1.25;1.15;;;;;;;26.11;15.14;98315.91;5064993;28;20509;-78
2021/10/30 01:55:50;;;;;;;1.73;0.90;;;;;;;25.85;14.92;98311.31;5072490;28;20054;-79
2021/10/30 01:58:16;;;;;;;1.48;1.17;;;;;;;25.73;14.90;98307.19;5069959;28;20053;-78
2021/10/30 02:00:43;;;;;;;1.38;1.17;;;;;;;25.80;14.98;98303.41;5071076;28;20031;-79
2021/10/30 02:03:10;;;;;;;2.05;1.17;;;;;;;26.03;14.85;98303.19;5071011;28;20104;-78
2021/10/30 02:05:36;;;;;;;1.77;0.90;;;;;;;26.32;14.54;98312.50;5063977;28;20033;-78
2021/10/30 02:08:03;;;;;;;2.30;1.25;;;;;;;26.36;14.14;98306.78;5063262;28;20103;-78
2021/10/30 02:10:29;;;;;;;2.38;1.17;;;;;;;26.12;14.56;98309.03;5068188;28;20397;-78
2021/10/30 02:12:55;;;;;;;1.10;0.95;;;;;;;25.85;14.71;98302.88;5056803;28;20083;-78
2021/10/30 02:15:21;;;;;;;1.23;0.88;;;;;;;25.92;14.74;98297.88;5068373;28;20063;-78
2021/10/30 02:17:48;;;;;;;1.73;0.88;;;;;;;26.02;14.49;98304.44;5072304;28;20055;-78
2021/10/30 02:20:14;;;;;;;1.98;1.00;;;;;;;26.24;14.54;98299.06;5069974;28;20036;-79
2021/10/30 02:22:40;;;;;;;1.90;0.80;;;;;;;26.30;14.37;98291.66;5061384;28;20093;-78
2021/10/30 02:25:08;;;;;;;1.80;0.88;;;;;;;26.34;14.43;98295.16;5070585;28;20036;-79
2021/10/30 02:27:34;;;;;;;0.93;0.70;;;;;;;26.34;14.20;98290.34;5064724;28;20062;-78
2021/10/30 02:30:00;;;;;;;1.73;1.23;;;;;;;26.36;14.36;98303.94;5066477;28;20039;-79
2021/10/30 02:32:27;;;;;;;1.20;0.90;;;;;;;26.06;14.51;98307.94;5072830;28;20186;-78
2021/10/30 02:34:53;;;;;;;1.38;1.02;;;;;;;26.22;14.38;98309.97;5070696;28;20036;-78
2021/10/30 02:37:19;;;;;;;0.93;0.70;;;;;;;26.12;14.63;98306.19;5069843;28;20036;-78
2021/10/30 02:39:45;;;;;;;0.95;0.88;;;;;;;26.20;14.59;98301.97;5070244;28;20033;-78
2021/10/30 02:42:11;;;;;;;1.05;0.80;;;;;;;26.28;14.43;98306.16;5060479;28;20048;-78
2021/10/30 02:44:37;;;;;;;1.58;0.90;;;;;;;26.46;14.54;98308.50;5061222;28;20071;-78
2021/10/30 02:47:04;;;;;;;1.35;0.82;;;;;;;26.54;14.38;98304.25;5061763;28;20055;-79
2021/10/30 02:49:32;;;;;;;1.67;0.77;;;;;;;26.46;14.19;98303.66;5070973;28;20036;-78
2021/10/30 02:51:58;;;;;;;1.20;0.95;;;;;;;25.99;15.16;98300.50;5067938;28;20029;-78
2021/10/30 02:54:24;;;;;;;1.23;0.70;;;;;;;25.84;15.24;98296.47;5063495;28;20036;-78
2021/10/30 02:56:50;;;;;;;1.08;0.93;;;;;;;25.66;15.51;98306.56;5076942;28;20032;-78
2021/10/30 02:59:16;;;;;;;0.73;0.70;;;;;;;25.60;15.67;98294.28;5042927;28;20410;-78
2021/10/30 03:01:42;;;;;;;1.38;0.88;;;;;;;25.84;15.53;98292.84;5061818;28;20091;-78
2021/10/30 03:04:08;;;;;;;1.42;0.80;;;;;;;25.28;15.72;98292.19;5065774;28;20378;-78
2021/10/30 03:06:34;;;;;;;1.48;0.73;;;;;;;25.49;15.71;98290.91;5065216;28;20044;-78
2021/10/30 03:09:02;;;;;;;1.17;0.70;;;;;;;25.70;15.60;98290.38;5069586;28;20024;-78
2021/10/30 03:11:28;;;;;;;2.05;0.98;;;;;;;25.54;15.67;98294.00;5076234;28;20107;-78
2021/10/30 03:13:54;;;;;;;1.48;1.05;;;;;;;25.83;15.21;98294.88;5063924;28;20072;-78
2021/10/30 03:16:21;;;;;;;2.00;1.20;;;;;;;25.39;15.55;98289.94;5063494;28;20033;-78
2021/10/30 03:18:47;;;;;;;1.00;0.90;;;;;;;25.51;15.81;98294.88;5066657;28;20422;-78
2021/10/30 03:21:13;;;;;;;0.88;0.88;;;;;;;25.05;16.08;98290.31;5069528;28;20040;-78
2021/10/30 03:23:41;;;;;;;2.05;1.02;;;;;;;24.62;17.00;98289.63;5066098;28;20128;-78
2021/10/30 03:26:07;;;;;;;1.92;1.10;;;;;;;24.42;17.03;98284.00;5069540;28;20478;-78
2021/10/30 03:28:33;;;;;;;1.17;1.08;;;;;;;24.20;16.78;98288.44;5069143;28;20045;-78
2021/10/30 03:30:59;;;;;;;1.88;1.00;;;;;;;24.59;17.13;98291.28;5065731;28;20032;-79
2021/10/30 03:33:25;;;;;;;1.38;0.98;;;;;;;25.00;16.12;98282.41;5062739;28;20475;-79
2021/10/30 03:35:52;;;;;;;1.88;1.27;;;;;;;25.01;16.73;98284.00;5068762;28;20036;-79
2021/10/30 03:38:18;;;;;;;1.83;1.00;;;;;;;24.69;16.48;98283.88;5081946;28;20037;-79
2021/10/30 03:40:44;;;;;;;1.33;0.90;;;;;;;25.42;16.03;98284.22;5068632;28;20033;-78
2021/10/30 03:43:11;;;;;;;1.73;1.10;;;;;;;25.67;16.18;98274.41;5065749;28;20538;-79
2021/10/30 03:45:37;;;;;;;2.22;1.17;;;;;;;25.83;15.82;98280.81;5064081;28;20028;-79
2021/10/30 03:48:09;;;;;;;1.52;0.95;;;;;;;25.77;16.05;98276.94;5063934;28;20032;-79
2021/10/30 03:50:36;;;;;;;1.15;0.80;;;;;;;26.12;15.91;98275.25;5069148;28;20048;-79
2021/10/30 03:53:03;;;;;;;1.20;1.00;;;;;;;26.05;15.54;98275.41;5067057;28;20025;-78
2021/10/30 03:55:30;;;;;;;1.17;1.00;;;;;;;26.16;15.51;98278.78;5065727;28;20032;-78
2021/10/30 03:57:56;;;;;;;1.38;1.15;;;;;;;26.09;15.62;98276.88;5074314;28;20033;-79
2021/10/30 04:00:22;;;;;;;2.40;1.27;;;;;;;25.83;15.96;98274.41;5062703;28;20024;-79
2021/10/30 04:02:49;;;;;;;1.95;0.98;;;;;;;25.87;16.11;98277.91;5061415;28;20033;-79
2021/10/30 04:05:15;;;;;;;1.73;1.25;;;;;;;26.47;15.06;98270.66;5064441;28;20032;-79
2021/10/30 04:07:42;;;;;;;1.67;0.90;;;;;;;26.39;14.94;98267.28;5063955;28;20063;-79
2021/10/30 04:10:08;;;;;;;3.28;0.90;;;;;;;26.62;14.95;98264.19;5061960;28;20041;-79
2021/10/30 04:12:35;;;;;;;1.25;1.08;;;;;;;26.74;15.00;98266.25;5072110;28;20036;-79
2021/10/30 04:15:02;;;;;;;1.25;0.90;;;;;;;27.15;14.83;98254.13;5071163;28;20031;-79
2021/10/30 04:17:31;;;;;;;1.10;1.00;;;;;;;27.30;14.42;98251.66;5065775;28;20036;-79
2021/10/30 04:19:57;;;;;;;1.67;1.10;;;;;;;27.01;14.75;98248.13;5069020;28;20055;-79
2021/10/30 04:22:23;;;;;;;0.73;0.73;;;;;;;26.93;14.78;98255.25;5065723;28;20025;-79
2021/10/30 04:24:49;;;;;;;1.60;1.30;;;;;;;26.97;14.59;98245.44;5037822;28;20123;-79
2021/10/30 04:27:15;;;;;;;1.55;1.08;;;;;;;26.61;15.25;98254.13;5070513;28;20391;-79
2021/10/30 04:29:41;;;;;;;4.20;1.05;;;;;;;26.79;15.19;98252.84;5070191;28;20028;-79
2021/10/30 04:32:09;;;;;;;2.28;1.17;;;;;;;26.93;14.53;98258.06;5063821;28;20383;-79
2021/10/30 04:37:16;;;;;;;1.23;1.02;;;;;;;25.87;15.23;98246.97;5065992;28;20037;-78
2021/10/30 04:39:50;;;;;;;2.35;0.80;;;;;;;25.89;15.97;98247.31;5066880;28;20056;-79
2021/10/30 04:42:17;;;;;;;1.08;0.70;;;;;;;25.99;15.67;98249.06;5064456;28;20043;-79
2021/10/30 04:44:44;;;;;;;1.20;1.00;;;;;;;25.73;15.99;98250.16;5069605;28;20016;-78
2021/10/30 04:47:12;;;;;;;1.25;0.95;;;;;;;23.76;17.77;98250.38;5064355;28;20032;-79
2021/10/30 04:49:39;;;;;;;1.63;1.02;;;;;;;25.07;16.33;98247.72;5064151;28;20111;-78
2021/10/30 04:52:07;;;;;;;0.70;0.70;;;;;;;25.74;16.09;98234.88;5062508;28;20040;-79
2021/10/30 04:54:33;;;;;;;2.72;1.10;;;;;;;26.24;15.54;98239.94;5064592;28;20029;-78
2021/10/30 04:56:59;;;;;;;1.27;1.05;;;;;;;26.50;15.51;98244.41;5057630;28;20048;-79
2021/10/30 04:59:25;;;;;;;2.40;1.00;;;;;;;26.61;15.61;98234.41;5063408;28;20036;-78
2021/10/30 05:01:52;;;;;;;1.58;0.90;;;;;;;26.48;15.47;98235.63;5068264;28;20032;-79
2021/10/30 05:04:18;;;;;;;1.80;0.82;;;;;;;26.19;16.10;98234.84;5060573;28;20097;-79
2021/10/30 05:06:44;;;;;;;1.60;0.85;;;;;;;26.03;15.66;98228.03;5064855;28;20128;-78
2021/10/30 05:09:10;;;;;;;1.77;1.00;;;;;;;26.15;15.82;98232.16;5062143;28;20037;-78
2021/10/30 05:11:36;;;;;;;0.68;0.60;;;;;;;26.12;15.70;98229.41;5063561;28;20024;-78
2021/10/30 05:14:02;;;;;;;0.82;0.63;;;;;;;25.96;15.69;98227.41;5065962;28;20097;-78
2021/10/30 05:16:28;;;;;;;1.00;0.70;;;;;;;25.64;15.84;98227.47;5064876;28;20036;-78
2021/10/30 05:18:54;;;;;;;0.75;0.52;;;;;;;25.91;15.67;98228.75;5061761;28;20036;-77
2021/10/30 05:21:20;;;;;;;0.93;0.80;;;;;;;26.13;15.49;98233.81;5065345;28;20049;-78
2021/10/30 05:23:46;;;;;;;2.55;1.13;;;;;;;25.81;16.14;98232.63;5067159;28;20055;-79
2021/10/30 05:26:12;;;;;;;3.15;1.40;;;;;;;25.59;16.27;98230.81;5065168;28;20044;-79
2021/10/30 05:28:38;;;;;;;1.33;1.02;;;;;;;25.31;16.49;98223.88;5064701;28;20040;-78
2021/10/30 05:31:05;;;;;;;2.80;1.23;;;;;;;25.17;16.80;98230.63;5064852;28;20052;-79
2021/10/30 05:33:31;;;;;;;1.60;0.70;;;;;;;25.20;16.68;98228.97;5062594;28;20405;-78
2021/10/30 05:35:57;;;;;;;1.52;1.15;;;;;;;24.66;17.00;98220.94;5062002;28;20102;-78
2021/10/30 05:38:23;;;;;;;1.33;0.85;;;;;;;24.26;17.35;98227.81;5067006;28;20041;-78
2021/10/30 05:40:49;;;;;;;1.17;0.80;;;;;;;24.80;16.81;98230.31;5069829;28;20059;-78
2021/10/30 05:43:16;;;;;;;1.98;1.33;;;;;;;24.14;17.73;98217.22;5068429;28;20101;-78
2021/10/30 05:45:44;;;;;;;3.08;0.88;;;;;;;24.31;17.88;98218.91;5068712;28;20033;-78
2021/10/30 05:48:13;;;;;;;1.98;1.10;;;;;;;23.42;18.41;98212.53;5052683;28;20044;-79
2021/10/30 05:50:40;;;;;;;1.98;1.10;;;;;;;24.65;17.51;98213.75;5065907;28;20025;-78
2021/10/30 05:53:07;;;;;;;2.08;1.00;;;;;;;25.09;16.73;98217.16;5052042;28;20394;-79
2021/10/30 05:55:33;;;;;;;1.90;0.95;;;;;;;25.34;16.30;98223.75;5065512;28;20040;-78
2021/10/30 05:58:00;;;;;;;10.07;1.30;;;;;;;25.29;16.58;98221.50;5066636;28;20116;-78
2021/10/30 06:00:27;;;;;;;2.55;1.00;;;;;;;25.26;16.74;98225.19;5064650;28;20067;-78
2021/10/30 06:02:53;;;;;;;2.78;0.80;;;;;;;25.16;16.70;98222.63;5049007;28;20079;-78
2021/10/30 06:05:19;;;;;;;1.48;0.88;;;;;;;24.89;16.83;98219.25;5063728;28;20025;-78
2021/10/30 06:07:45;;;;;;;1.80;1.13;;;;;;;24.66;17.20;98215.34;5067809;28;20477;-78
2021/10/30 06:10:12;;;;;;;0.70;0.70;;;;;;;25.57;16.33;98222.03;5068219;28;20064;-78
2021/10/30 06:12:40;;;;;;;1.80;0.73;;;;;;;25.92;16.09;98221.09;5065674;28;20028;-78
2021/10/30 06:15:07;;;;;;;5.45;1.60;;;;;;;26.27;15.67;98219.34;5063728;28;20025;-78
2021/10/30 06:17:33;;;;;;;2.65;1.30;;;;;;;26.52;15.45;98223.03;5049338;28;20367;-78
2021/10/30 06:20:00;;;;;;;11.80;1.60;;;;;;;26.88;14.57;98219.16;5068105;28;20048;-78
2021/10/30 06:22:27;;;;;;;1.92;1.02;;;;;;;26.96;14.84;98228.97;5066130;28;20486;-78
2021/10/30 06:24:53;;;;;;;2.22;0.90;;;;;;;27.09;14.85;98227.75;5071108;28;20032;-78
2021/10/30 06:27:19;;;;;;;2.40;0.98;;;;;;;27.46;14.94;98226.16;5071803;28;20025;-78
2021/10/30 06:29:46;;;;;;;4.28;1.38;;;;;;;27.59;14.30;98223.31;5071537;28;20579;-78
2021/10/30 06:32:12;;;;;;;2.58;1.00;;;;;;;26.96;14.84;98229.75;5075485;28;20024;-77
2021/10/30 06:34:38;;;;;;;3.40;1.40;;;;;;;27.06;14.79;98233.47;5071053;28;20109;-78
2021/10/30 06:37:05;;;;;;;1.75;0.80;;;;;;;27.72;14.68;98233.34;5073110;28;20044;-77
2021/10/30 06:39:31;;;;;;;1.25;1.15;;;;;;;27.89;14.28;98225.50;5053389;28;20494;-78
2021/10/30 06:41:57;;;;;;;1.38;1.00;;;;;;;27.28;14.71;98235.16;5072388;28;20025;-78
2021/10/30 06:44:23;;;;;;;1.30;0.95;;;;;;;27.47;15.13;98241.06;5069342;28;20050;-78
2021/10/30 06:46:51;;;;;;;1.40;0.82;;;;;;;27.88;14.75;98243.66;5072115;28;20097;-78
2021/10/30 06:49:18;;;;;;;0.70;0.68;;;;;;;28.16;15.36;98236.25;5072377;28;20037;-78
2021/10/30 06:51:46;;;;;;;4.95;1.20;;;;;;;28.16;14.66;98237.06;5073272;28;20486;-78
2021/10/30 06:54:13;;;;;;;2.53;1.73;;;;;;;28.30;14.50;98249.88;5075069;28;20035;-78
2021/10/30 06:56:40;;;;;;;1.20;0.70;;;;;;;28.70;13.88;98245.16;5074963;28;20028;-78
2021/10/30 06:59:07;;;;;;;0.82;0.70;;;;;;;28.84;13.67;98247.44;5067164;28;20036;-79
2021/10/30 07:01:35;;;;;;;4.10;1.63;;;;;;;28.79;14.88;98239.56;5064445;28;20033;-79
2021/10/30 07:04:02;;;;;;;3.00;1.08;;;;;;;28.92;15.45;98242.28;5068539;28;20559;-79
2021/10/30 07:06:28;;;;;;;9.70;2.97;;;;;;;28.49;15.58;98246.72;5067525;28;20041;-79
2021/10/30 07:08:58;;;;;;;5.68;2.92;;;;;;;28.25;16.33;98242.78;5070762;28;20028;-79
2021/10/30 07:11:25;;;;;;;3.67;1.97;;;;;;;28.49;15.82;98238.25;5070683;28;20486;-79
2021/10/30 07:13:52;;;;;;;3.28;1.73;;;;;;;28.75;14.06;98248.16;5065638;28;20275;-79
2021/10/30 07:16:18;;;;;;;2.05;1.30;;;;;;;29.05;14.53;98252.28;5068764;28;20478;-78
2021/10/30 07:18:45;;;;;;;4.55;1.30;;;;;;;28.74;14.91;98254.28;5073723;28;20036;-79
2021/10/30 07:21:11;;;;;;;3.55;1.85;;;;;;;28.94;14.35;98262.41;5065042;28;20048;-79
2021/10/30 07:23:37;;;;;;;2.63;1.60;;;;;;;29.18;14.72;98267.13;5064961;28;20032;-79
2021/10/30 07:26:05;;;;;;;1.92;1.45;;;;;;;29.22;13.85;98264.94;5063826;28;20053;-78
2021/10/30 07:28:31;;;;;;;3.88;1.17;;;;;;;29.33;14.71;98273.00;5067562;28;22940;-78
2021/10/30 07:30:57;;;;;;;3.95;1.55;;;;;;;29.61;14.13;98269.00;5066839;28;20033;-79
2021/10/30 07:33:23;;;;;;;3.22;1.50;;;;;;;29.57;14.58;98261.94;5081342;28;20036;-79
2021/10/30 07:35:49;;;;;;;2.45;1.20;;;;;;;29.42;13.81;98259.69;5067417;28;20486;-79
2021/10/30 07:38:16;;;;;;;1.35;1.00;;;;;;;29.84;14.08;98254.31;5065498;28;20150;-79
2021/10/30 07:40:43;;;;;;;1.90;1.25;;;;;;;30.09;13.95;98241.91;5066795;28;20052;-79
2021/10/30 07:43:09;;;;;;;2.80;1.73;;;;;;;30.03;14.69;98246.63;5069579;28;20065;-79
2021/10/30 07:45:35;;;;;;;2.10;1.52;;;;;;;29.26;14.90;98245.00;5070668;28;21017;-79
2021/10/30 07:48:02;;;;;;;1.75;1.10;;;;;;;28.46;15.02;98256.13;5066404;28;20039;-79
2021/10/30 07:50:28;;;;;;;1.65;1.10;;;;;;;27.77;15.10;98248.91;5044978;28;20557;-78
2021/10/30 07:52:55;;;;;;;1.60;1.25;;;;;;;28.63;15.38;98254.69;5069186;28;20055;-79
2021/10/30 07:55:21;;;;;;;1.77;1.10;;;;;;;29.34;14.31;98261.22;5071381;28;20037;-79
2021/10/30 07:57:47;;;;;;;3.20;1.35;;;;;;;28.84;14.96;98253.09;5051329;28;20033;-79
2021/10/30 08:00:14;;;;;;;1.33;1.05;;;;;;;29.55;14.68;98255.91;5068340;28;20082;-79
2021/10/30 08:02:44;;;;;;;1.58;1.15;;;;;;;29.79;13.76;98268.28;5063556;28;20037;-79
2021/10/30 08:05:11;;;;;;;2.13;1.48;;;;;;;28.67;15.16;98263.81;5068255;28;20103;-79
2021/10/30 08:07:38;;;;;;;1.38;1.00;;;;;;;29.18;14.83;98272.78;5069809;28;20398;-80
2021/10/30 08:10:06;;;;;;;2.60;1.13;;;;;;;29.42;14.64;98264.53;5076512;28;20099;-80
2021/10/30 08:12:33;;;;;;;1.77;1.10;;;;;;;29.05;14.48;98254.31;5054979;28;20032;-80
2021/10/30 08:15:00;;;;;;;2.67;1.63;;;;;;;27.93;15.45;98257.22;5070364;28;20092;-79
2021/10/30 08:17:27;;;;;;;2.15;1.15;;;;;;;29.73;14.50;98258.81;5065331;28;20047;-79
2021/10/30 08:19:53;;;;;;;1.80;1.33;;;;;;;30.32;14.80;98261.09;5047648;28;20095;-79
2021/10/30 08:22:19;;;;;;;2.67;1.40;;;;;;;30.27;14.34;98258.13;5058581;28;20074;-79
2021/10/30 08:24:46;;;;;;;1.35;0.90;;;;;;;30.63;13.73;98267.41;5070891;28;20034;-79
2021/10/30 08:27:15;;;;;;;3.25;1.85;;;;;;;29.81;13.89;98275.06;5064299;28;20037;-79
2021/10/30 08:29:42;;;;;;;2.58;1.00;;;;;;;30.63;13.61;98269.44;5066456;28;20029;-79
2021/10/30 08:32:10;;;;;;;2.85;1.05;;;;;;;30.80;13.53;98267.06;5069289;28;20406;-79
2021/10/30 08:34:36;;;;;;;1.70;1.10;;;;;;;31.36;13.11;98268.03;5065912;28;20390;-79
2021/10/30 08:37:03;;;;;;;1.30;1.02;;;;;;;31.56;12.65;98263.84;5072360;28;20039;-79
2021/10/30 08:39:29;;;;;;;1.70;1.23;;;;;;;31.77;12.64;98257.09;5066808;28;20043;-79
2021/10/30 08:41:59;;;;;;;2.53;1.40;;;;;;;32.00;13.62;98262.81;5061831;28;20501;-79
2021/10/30 08:44:25;;;;;;;1.55;1.20;;;;;;;32.07;12.68;98262.44;5067522;28;20493;-79
2021/10/30 08:46:52;;;;;;;1.35;0.90;;;;;;;31.56;13.32;98264.63;5067395;28;20028;-79
2021/10/30 08:49:19;;;;;;;1.67;1.10;;;;;;;30.55;13.87;98260.47;5069132;28;20035;-79
2021/10/30 08:51:46;;;;;;;1.58;1.08;;;;;;;31.22;14.09;98245.22;5066963;28;20486;-79
2021/10/30 08:54:13;;;;;;;2.47;0.90;;;;;;;31.56;12.79;98246.81;5070187;28;20040;-79
2021/10/30 08:56:39;;;;;;;1.13;0.75;;;;;;;31.55;12.86;98259.44;5068482;28;20025;-79
2021/10/30 08:59:10;;;;;;;0.93;0.82;;;;;;;31.95;13.07;98252.09;5062431;28;20047;-79
2021/10/30 09:01:43;;;;;;;1.40;1.10;;;;;;;29.85;13.94;98250.19;5065483;28;20035;-78
2021/10/30 09:04:13;;;;;;;1.50;1.02;;;;;;;30.54;15.01;98250.41;5067433;28;20031;-79
2021/10/30 09:07:04;;;;;;;2.17;1.38;;;;;;;29.16;14.03;98249.78;5070027;28;20035;-79
2021/10/30 09:09:31;;;;;;;1.35;1.05;;;;;;;29.20;14.61;98239.16;5066844;28;20031;-79
2021/10/30 09:12:05;;;;;;;1.15;0.80;;;;;;;30.72;14.09;98246.75;5069779;28;20052;-79
2021/10/30 09:14:42;;;;;;;1.83;0.93;;;;;;;30.40;13.88;98241.78;5066684;28;20056;-79
2021/10/30 09:17:19;;;;;;;1.65;1.30;;;;;;;29.54;14.55;98237.38;5063910;28;20044;-79
2021/10/30 09:19:50;;;;;;;0.73;0.73;;;;;;;30.91;13.97;98248.31;5065229;28;20068;-79
2021/10/30 09:22:19;;;;;;;2.03;1.10;;;;;;;30.39;13.51;98246.63;5067351;28;20037;-79
2021/10/30 09:25:04;;;;;;;1.45;1.35;;;;;;;28.56;14.24;98252.13;5064262;28;20119;-79
2021/10/30 09:27:50;;;;;;;1.63;1.27;;;;;;;28.83;14.19;98253.53;5065100;28;20033;-79
2021/10/30 09:30:19;;;;;;;3.00;1.10;;;;;;;29.40;15.10;98253.69;5067301;28;20099;-80
2021/10/30 09:32:57;;;;;;;1.83;1.05;;;;;;;29.25;14.30;98249.88;5070811;28;20478;-79
2021/10/30 09:35:33;;;;;;;5.00;1.23;;;;;;;29.74;14.91;98249.06;5067491;28;20359;-79
2021/10/30 09:38:00;;;;;;;1.48;1.10;;;;;;;29.28;15.38;98231.97;5045835;28;20048;-80
2021/10/30 09:40:31;;;;;;;3.85;1.60;;;;;;;28.80;15.37;98241.13;5064841;28;20516;-79
2021/10/30 09:43:26;;;;;;;1.27;1.13;;;;;;;30.30;14.03;98238.13;5068052;28;20478;-79
2021/10/30 09:45:55;;;;;;;3.33;1.85;;;;;;;29.06;15.87;98241.72;5050814;28;20060;-79
2021/10/30 09:48:24;;;;;;;2.08;1.42;;;;;;;29.32;15.69;98235.44;5062915;28;20041;-79
2021/10/30 09:50:57;;;;;;;2.67;1.30;;;;;;;29.53;14.97;98235.81;5065988;28;20135;-79
2021/10/30 09:53:30;;;;;;;1.63;1.30;;;;;;;29.18;15.22;98236.00;5060911;28;20029;-79
2021/10/30 09:56:11;;;;;;;1.65;1.35;;;;;;;27.82;17.12;98234.22;5070826;28;20033;-79
2021/10/30 09:58:46;;;;;;;3.17;1.52;;;;;;;29.19;15.87;98234.78;5069411;28;20031;-79
2021/10/30 10:01:21;;;;;;;1.73;1.40;;;;;;;30.21;14.77;98235.28;5069722;28;20086;-80
2021/10/30 10:03:50;;;;;;;3.13;1.30;;;;;;;29.85;14.95;98232.47;5072296;28;20444;-79
2021/10/30 10:06:23;;;;;;;1.50;1.40;;;;;;;29.12;15.63;98228.56;5047293;28;20613;-78
2021/10/30 10:08:50;;;;;;;2.85;1.55;;;;;;;30.20;14.88;98233.72;5074122;28;20509;-78
2021/10/30 10:11:18;;;;;;;1.50;1.17;;;;;;;29.83;15.66;98215.13;5066909;28;20041;-78
2021/10/30 10:13:49;;;;;;;1.45;1.10;;;;;;;31.83;12.50;98210.53;5069637;28;20060;-78
2021/10/30 10:16:20;;;;;;;2.25;1.08;;;;;;;32.76;12.44;98204.38;5069869;28;20115;-79
2021/10/30 10:18:47;;;;;;;;;;;;;;;33.53;10.82;98204.09;5068570;28;20041;-78
2021/10/30 10:21:23;;;;;;;1.38;0.90;;;;;;;34.25;11.39;98208.69;5069793;28;20267;-78
2021/10/30 10:23:49;;;;;;;1.10;1.00;;;;;;;34.43;11.39;98199.00;5070720;28;20085;-77
2021/10/30 10:26:15;;;;;;;2.67;0.80;;;;;;;34.88;11.31;98209.59;5066864;28;20116;-78
2021/10/30 10:28:43;;;;;;;0.98;0.98;;;;;;;35.24;11.18;98208.13;5066562;28;20068;-78
2021/10/30 10:31:24;;;;;;;1.17;1.08;;;;;;;35.36;11.29;98201.16;5065651;28;20386;-77
2021/10/30 10:34:09;;;;;;;1.40;0.82;;;;;;;35.19;11.50;98208.84;5063668;28;20078;-78
2021/10/30 10:36:37;;;;;;;1.23;1.00;;;;;;;34.92;11.28;98203.66;5067207;28;20089;-78
2021/10/30 10:39:03;;;;;;;1.20;0.88;;;;;;;35.04;10.88;98202.50;5067571;28;20025;-78
2021/10/30 10:41:38;;;;;;;1.10;0.82;;;;;;;34.86;11.83;98189.34;5065813;28;20167;-78
2021/10/30 10:44:09;;;;;;;0.98;0.70;;;;;;;35.22;11.49;98196.41;5066573;28;20037;-78
2021/10/30 10:46:48;;;;;;;2.08;0.85;;;;;;;35.47;11.05;98195.56;5068976;28;20028;-80
2021/10/30 10:49:30;;;;;;;1.05;0.70;;;;;;;35.83;11.76;98186.16;5067722;28;20133;-78
2021/10/30 10:52:05;;;;;;;0.73;0.73;;;;;;;34.59;11.48;98181.31;5072116;28;20032;-78
2021/10/30 10:54:54;;;;;;;0.85;0.60;;;;;;;35.02;10.96;98182.25;5071343;28;20500;-78
2021/10/30 10:57:24;;;;;;;1.33;0.77;;;;;;;35.06;11.52;98179.94;5042338;28;20045;-78
2021/10/30 11:00:00;;;;;;;1.13;0.80;;;;;;;35.17;12.50;98177.19;5074209;28;20032;-78
2021/10/30 11:02:34;;;;;;;2.08;0.63;;;;;;;34.95;11.74;98174.13;5074293;28;20027;-78
2021/10/30 11:05:10;;;;;;;1.38;0.75;;;;;;;34.59;11.29;98170.69;5074445;28;20025;-78
2021/10/30 11:07:51;;;;;;;0.98;0.70;;;;;;;34.86;11.69;98180.00;5071976;28;20445;-78
2021/10/30 11:10:21;;;;;;;0.95;0.68;;;;;;;34.82;11.72;98171.69;5069720;28;20387;-78
2021/10/30 11:12:59;;;;;;;1.00;0.65;;;;;;;34.69;11.39;98172.09;5065406;28;20041;-78
2021/10/30 11:15:27;;;;;;;0.63;0.60;;;;;;;34.77;11.58;98174.50;5063882;28;20035;-78
2021/10/30 11:18:07;;;;;;;0.57;0.57;;;;;;;35.03;11.63;98173.16;5067265;28;20405;-78
2021/10/30 11:21:09;;;;;;;1.15;0.60;;;;;;;35.18;11.26;98175.88;5065178;28;20036;-78
2021/10/30 11:24:10;;;;;;;1.27;0.70;;;;;;;34.66;11.51;98170.25;5063134;28;20054;-78
2021/10/30 11:26:36;;;;;;;1.38;0.70;;;;;;;35.18;11.56;98164.47;5069533;28;20065;-78
2021/10/30 11:29:07;;;;;;;1.33;0.82;;;;;;;35.09;11.80;98164.66;5048723;28;20065;-78
2021/10/30 11:31:33;;;;;;;0.80;0.80;;;;;;;34.79;12.25;98155.56;5065603;28;20051;-78
2021/10/30 11:34:04;;;;;;;0.70;0.70;;;;;;;34.09;12.88;98155.13;5069245;28;20044;-79
2021/10/30 11:36:36;;;;;;;1.15;0.80;;;;;;;34.31;12.26;98160.28;5065061;28;20162;-79
2021/10/30 11:39:04;;;;;;;1.25;0.80;;;;;;;34.38;12.32;98160.59;5058177;28;20044;-79
2021/10/30 11:41:33;;;;;;;1.05;0.85;;;;;;;34.17;12.76;98150.53;5064673;28;20032;-77